Hovedside
METAR-TAF:

METAR-TAF

Lufthavner :

Ørland hovedflystasjon

Ørland, Norge

breddegrad: 63-42N, lengdegrad: 009-36E, høyde over havet: 0 m

Gjeldene værobservasjon

Denne rapporten ble laget for 19 minutter siden, klokken 17:20 UTC
Vind 9 kt fra Nord
Temperatur 12°C
Luftfuktighet 58%
Trykk 1034 hPa
Sikt 10 km eller mer
ingen skyer under 1500 m og ingen bygeskyer

METAR: ENOL 261720Z 35009KT CAVOK 12/04 Q1034 NOSIG

Tid: 19:39 (17:39 UTC)

Varsel

Varsel gyldig fra 26. klokken 12 UTC til 27. klokken 12 UTC
Vind 12 kt fra Nord-nordvest
Sikt 10 km eller mer
Få skyer i en høyde av 2000 ft
Spredte skyer i en høyde av 20000 ft
Blir
fra 26. klokken 20 UTC til 26. klokken 22 UTC
Vind 7 kt fra skiftende retning
Blir
fra 27. klokken 04 UTC til 27. klokken 06 UTC
Vind 10 kt fra Øst-sørøst

TAF: ENOL 2612/2712 34012KT 9999 FEW020 SCT200 BECMG 2620/2622 VRB07KT BECMG 2704/2706 11010KT

Værobservasjoner og værvarsel for over 4000 flyplasser (METAR- og TAF-rapporter).

Tilgjengelige stasjoner er representert av de røde og gule prikkene på kartet.

Hold musepekeren over prikken for å se navnet på stasjonen.

Klikk så for å se værobservasjoner og -varsler.

For å forandre kartet kan du klikke på den grønne knappen med svart kryss for å zoome inn, på den grønne knappen med strek for å zoome ut, eller på de grønne pilene for å se tilstøtende kart.


METAR-TAF: